Time;durP1;ratioP1;P1;durP2;ratioP2;P2;SDS_P1;SDS_P2;PMS_P1;PMS_P2;Temp;Humidity;BMP_temperature;BMP_pressure;BME280_temperature;BME280_humidity;BME280_pressure;Samples;Min_cycle;Max_cycle;Signal;HPM_P1;HPM_P2
2023/12/15 00:01:45;;;;;;;28.98;12.77;;;5.40;99.90;;;;;;4954737;29;20048;-83
2023/12/15 00:04:12;;;;;;;31.15;12.63;;;5.30;99.90;;;;;;4954258;29;20068;-83
2023/12/15 00:06:38;;;;;;;35.10;12.98;;;5.60;99.90;;;;;;4954309;29;20048;-83
2023/12/15 00:09:05;;;;;;;27.55;12.25;;;5.10;99.90;;;;;;4970249;29;20046;-84
2023/12/15 00:11:32;;;;;;;32.30;12.50;;;5.10;99.90;;;;;;4954154;29;20445;-83
2023/12/15 00:13:59;;;;;;;31.38;12.32;;;6.00;99.90;;;;;;4950690;29;20127;-83
2023/12/15 00:16:28;;;;;;;30.23;13.25;;;5.10;99.90;;;;;;4946339;29;20040;-83
2023/12/15 00:18:55;;;;;;;26.60;12.75;;;5.10;99.90;;;;;;4953979;29;20038;-83
2023/12/15 00:21:23;;;;;;;32.88;13.52;;;5.10;99.90;;;;;;4954292;29;20040;-83
2023/12/15 00:23:50;;;;;;;31.33;12.88;;;5.20;99.90;;;;;;4954443;29;20051;-83
2023/12/15 00:26:16;;;;;;;27.63;12.93;;;6.10;99.90;;;;;;4942353;29;20044;-83
2023/12/15 00:28:43;;;;;;;31.98;12.85;;;5.20;99.90;;;;;;4953429;29;20048;-83
2023/12/15 00:31:10;;;;;;;29.60;13.25;;;5.40;99.90;;;;;;4957412;29;20055;-83
2023/12/15 00:33:36;;;;;;;35.70;14.05;;;5.20;99.90;;;;;;4943140;29;20070;-83
2023/12/15 00:36:03;;;;;;;27.90;12.52;;;6.30;99.90;;;;;;4941731;29;20040;-83
2023/12/15 00:38:33;;;;;;;30.25;12.57;;;5.20;99.90;;;;;;4962821;29;20122;-83
2023/12/15 00:40:59;;;;;;;38.75;12.70;;;5.20;99.90;;;;;;4952713;29;20043;-83
2023/12/15 00:43:26;;;;;;;34.75;13.15;;;5.20;99.90;;;;;;4949947;29;20130;-83
2023/12/15 00:45:53;;;;;;;33.50;13.27;;;5.20;99.90;;;;;;4958547;29;20464;-83
2023/12/15 00:48:19;;;;;;;29.55;13.10;;;5.30;99.90;;;;;;4949642;29;20047;-83
2023/12/15 00:50:46;;;;;;;31.50;12.60;;;5.60;99.90;;;;;;4953690;29;20412;-83
2023/12/15 00:53:13;;;;;;;32.17;12.85;;;5.30;99.90;;;;;;4953586;29;20545;-83
2023/12/15 00:55:39;;;;;;;31.42;13.13;;;6.00;99.90;;;;;;4961666;29;20126;-83
2023/12/15 00:58:06;;;;;;;29.55;12.73;;;5.30;99.90;;;;;;4936162;29;20453;-83
2023/12/15 01:00:32;;;;;;;30.17;12.68;;;6.00;99.90;;;;;;4953681;29;20180;-83
2023/12/15 01:02:59;;;;;;;31.25;13.02;;;6.20;99.90;;;;;;4969246;29;20086;-83
2023/12/15 01:05:27;;;;;;;31.77;13.65;;;5.90;99.90;;;;;;4947734;29;20055;-83
2023/12/15 01:07:54;;;;;;;32.08;13.32;;;5.50;99.90;;;;;;4938397;29;20043;-82
2023/12/15 01:10:20;;;;;;;29.52;13.02;;;5.80;99.90;;;;;;4918746;29;20127;-83
2023/12/15 01:12:47;;;;;;;34.72;13.13;;;6.50;99.90;;;;;;4925816;29;20410;-82
2023/12/15 01:15:14;;;;;;;29.00;13.65;;;6.00;99.90;;;;;;4937471;29;20040;-83
2023/12/15 01:17:41;;;;;;;30.52;13.20;;;5.40;99.90;;;;;;4937362;29;20046;-83
2023/12/15 01:20:10;;;;;;;34.60;13.50;;;5.50;99.90;;;;;;4936500;29;20035;-83
2023/12/15 01:22:36;;;;;;;32.30;13.63;;;5.50;99.90;;;;;;4923486;29;20123;-83
2023/12/15 01:25:04;;;;;;;36.65;15.20;;;6.40;99.90;;;;;;4930873;29;20130;-83
2023/12/15 01:27:31;;;;;;;34.00;14.23;;;5.50;99.90;;;;;;4918820;29;20048;-82
2023/12/15 01:29:57;;;;;;;35.90;14.35;;;6.40;99.90;;;;;;4918932;29;20461;-83
2023/12/15 01:32:24;;;;;;;36.28;14.85;;;6.20;99.90;;;;;;4934081;29;20086;-83
2023/12/15 01:34:50;;;;;;;39.45;15.88;;;6.30;99.90;;;;;;4934112;29;20135;-83
2023/12/15 01:37:17;;;;;;;36.83;14.82;;;5.60;99.90;;;;;;4943361;29;20040;-83
2023/12/15 01:39:44;;;;;;;36.28;13.73;;;6.50;99.90;;;;;;4943444;29;20039;-82
2023/12/15 01:42:10;;;;;;;37.65;15.40;;;6.60;99.90;;;;;;4937343;29;20108;-82
2023/12/15 01:44:38;;;;;;;38.10;15.38;;;5.80;99.90;;;;;;4924869;29;20050;-83
2023/12/15 01:47:04;;;;;;;39.10;15.00;;;6.70;99.90;;;;;;4937252;29;20130;-83
2023/12/15 01:49:31;;;;;;;36.25;15.80;;;5.60;99.90;;;;;;4927296;29;20127;-82
2023/12/15 01:51:58;;;;;;;42.42;16.80;;;6.40;99.90;;;;;;4935109;29;20067;-82
2023/12/15 01:54:25;;;;;;;43.53;16.17;;;5.70;99.90;;;;;;4937141;29;20051;-83
2023/12/15 01:56:51;;;;;;;43.75;16.30;;;5.70;99.90;;;;;;4945017;29;20481;-83
2023/12/15 01:59:18;;;;;;;37.78;15.98;;;5.70;99.90;;;;;;4957070;29;20179;-82
2023/12/15 02:01:45;;;;;;;45.15;16.10;;;6.30;99.90;;;;;;4948657;29;20169;-83
2023/12/15 02:04:11;;;;;;;37.47;15.82;;;6.80;99.90;;;;;;4930595;29;20056;-83
2023/12/15 02:06:38;;;;;;;39.67;16.55;;;5.90;99.90;;;;;;4955543;29;20408;-83
2023/12/15 02:09:05;;;;;;;50.72;16.15;;;6.60;99.90;;;;;;4956785;29;20040;-83
2023/12/15 02:11:31;;;;;;;41.25;16.40;;;5.80;99.90;;;;;;4956684;29;20047;-82
2023/12/15 02:13:58;;;;;;;41.60;16.05;;;5.80;99.90;;;;;;4956573;29;20047;-83
2023/12/15 02:16:25;;;;;;;45.80;17.20;;;5.80;99.90;;;;;;4956822;29;20067;-83
2023/12/15 02:18:51;;;;;;;47.63;15.95;;;5.80;99.90;;;;;;4952488;29;20484;-82
2023/12/15 02:21:18;;;;;;;47.17;18.23;;;5.80;99.90;;;;;;4942733;29;20107;-83
2023/12/15 02:23:44;;;;;;;48.10;17.30;;;6.80;99.90;;;;;;4952084;29;20130;-83
2023/12/15 02:26:11;;;;;;;49.47;18.25;;;6.00;99.90;;;;;;4949938;29;20158;-83
2023/12/15 02:28:38;;;;;;;43.40;17.95;;;6.40;99.90;;;;;;4964997;29;20054;-83
2023/12/15 02:31:04;;;;;;;54.45;18.08;;;5.90;99.90;;;;;;4967643;29;20361;-82
2023/12/15 02:33:31;;;;;;;46.07;17.33;;;5.90;99.90;;;;;;4971940;29;20484;-83
2023/12/15 02:35:58;;;;;;;48.85;16.80;;;5.90;99.90;;;;;;4956517;29;20186;-83
2023/12/15 02:38:25;;;;;;;47.33;17.80;;;7.00;99.90;;;;;;4956207;29;20043;-82
2023/12/15 02:40:51;;;;;;;52.85;17.77;;;6.40;99.90;;;;;;4956052;29;20094;-83
2023/12/15 02:43:18;;;;;;;47.22;17.23;;;6.00;99.90;;;;;;4956093;29;20485;-82
2023/12/15 02:45:45;;;;;;;60.97;18.25;;;7.00;99.90;;;;;;4943334;29;20496;-83
2023/12/15 02:48:11;;;;;;;51.95;17.38;;;6.10;99.90;;;;;;4956043;29;20040;-83
2023/12/15 02:50:38;;;;;;;53.70;18.67;;;6.00;99.90;;;;;;4956158;29;20047;-82
2023/12/15 02:53:05;;;;;;;59.97;18.20;;;6.10;99.90;;;;;;4943786;29;20050;-83
2023/12/15 02:55:34;;;;;;;68.72;19.77;;;6.70;99.90;;;;;;4955844;29;20039;-83
2023/12/15 02:58:01;;;;;;;59.88;20.15;;;6.50;99.90;;;;;;4943093;29;20047;-83
2023/12/15 03:00:28;;;;;;;75.10;20.23;;;;;;;;;;4955717;29;20086;-83
2023/12/15 03:02:54;;;;;;;63.58;17.75;;;6.10;99.90;;;;;;4955646;29;20039;-83
2023/12/15 03:05:21;;;;;;;67.20;20.60;;;6.10;99.90;;;;;;4955296;29;20139;-83
2023/12/15 03:07:48;;;;;;;52.70;18.90;;;7.10;99.90;;;;;;4955490;29;20051;-83
2023/12/15 03:10:14;;;;;;;55.15;17.88;;;7.00;99.90;;;;;;4962829;29;20567;-83
2023/12/15 03:12:41;;;;;;;56.78;18.55;;;6.20;99.90;;;;;;4944090;29;20131;-83
2023/12/15 03:15:08;;;;;;;58.67;16.83;;;6.30;99.90;;;;;;4955558;29;20075;-83
2023/12/15 03:17:34;;;;;;;56.08;17.92;;;6.20;99.90;;;;;;4964586;29;20706;-83
2023/12/15 03:20:02;;;;;;;54.03;16.40;;;6.40;99.90;;;;;;4955479;29;20055;-83
2023/12/15 03:22:28;;;;;;;51.55;17.25;;;6.30;99.90;;;;;;4954182;29;20093;-83
2023/12/15 03:24:55;;;;;;;55.50;16.40;;;7.30;99.90;;;;;;4955144;29;20485;-83
2023/12/15 03:27:22;;;;;;;52.80;17.35;;;6.30;99.90;;;;;;4962847;29;20039;-83
2023/12/15 03:29:49;;;;;;;60.78;17.30;;;7.30;99.90;;;;;;4973209;29;20036;-83
2023/12/15 03:32:16;;;;;;;44.53;15.68;;;6.20;99.90;;;;;;4955178;29;20047;-83
2023/12/15 03:34:42;;;;;;;46.03;16.85;;;6.50;99.90;;;;;;4952997;29;20040;-83
2023/12/15 03:37:09;;;;;;;42.60;16.65;;;7.10;99.90;;;;;;4936098;29;20132;-83
2023/12/15 03:39:36;;;;;;;54.67;16.88;;;6.20;99.90;;;;;;4950960;29;20051;-83
2023/12/15 03:42:06;;;;;;;51.60;17.30;;;6.70;99.90;;;;;;4955023;29;20040;-82
2023/12/15 03:44:39;;;;;;;50.15;17.05;;;6.20;99.90;;;;;;4954817;29;20062;-83
2023/12/15 03:47:09;;;;;;;45.53;16.38;;;6.30;99.90;;;;;;4954978;29;20048;-83
2023/12/15 03:49:36;;;;;;;44.17;15.57;;;6.20;99.90;;;;;;4944250;29;20420;-83
2023/12/15 03:52:03;;;;;;;51.88;16.45;;;6.60;99.90;;;;;;4952767;29;20055;-82
2023/12/15 03:54:29;;;;;;;43.00;15.90;;;6.20;99.90;;;;;;4954634;29;20054;-83
2023/12/15 03:56:57;;;;;;;41.03;16.02;;;6.20;99.90;;;;;;4942221;29;20437;-83
2023/12/15 03:59:25;;;;;;;49.08;16.88;;;6.70;99.90;;;;;;4954587;29;20040;-83
2023/12/15 04:01:52;;;;;;;49.30;16.85;;;6.20;99.90;;;;;;4955043;29;20031;-83
2023/12/15 04:04:18;;;;;;;45.05;15.55;;;6.60;99.90;;;;;;4970165;29;20131;-83
2023/12/15 04:06:45;;;;;;;50.75;16.85;;;6.10;99.90;;;;;;4961281;29;20412;-83
2023/12/15 04:09:12;;;;;;;47.88;17.70;;;6.60;99.90;;;;;;4960431;29;20043;-83
2023/12/15 04:11:39;;;;;;;48.25;16.77;;;6.10;99.90;;;;;;4970250;29;20039;-83
2023/12/15 04:14:05;;;;;;;39.35;15.90;;;6.00;99.90;;;;;;4954209;29;20040;-83
2023/12/15 04:16:32;;;;;;;53.83;16.52;;;6.00;99.90;;;;;;4954310;29;20106;-83
2023/12/15 04:18:59;;;;;;;52.75;15.95;;;5.90;99.90;;;;;;4941785;29;20031;-83
2023/12/15 04:21:26;;;;;;;48.25;15.93;;;5.90;99.90;;;;;;4954166;29;20485;-83
2023/12/15 04:23:53;;;;;;;50.20;16.17;;;5.90;99.90;;;;;;4954014;29;20036;-83
2023/12/15 04:26:19;;;;;;;39.00;14.45;;;5.80;99.90;;;;;;4954188;29;20040;-83
2023/12/15 04:28:46;;;;;;;42.85;16.15;;;5.80;99.90;;;;;;4946998;29;20099;-83
2023/12/15 04:31:13;;;;;;;50.25;16.65;;;5.80;99.90;;;;;;4941447;29;20123;-82
2023/12/15 04:33:40;;;;;;;39.08;15.73;;;6.90;99.90;;;;;;4953946;29;20435;-83
2023/12/15 04:36:08;;;;;;;50.47;16.10;;;6.30;99.90;;;;;;4950952;29;20051;-83
2023/12/15 04:38:37;;;;;;;48.08;16.90;;;5.70;99.90;;;;;;4935164;29;20124;-83
2023/12/15 04:41:04;;;;;;;59.05;17.67;;;5.70;99.90;;;;;;4949366;29;20146;-83
2023/12/15 04:43:31;;;;;;;47.67;16.27;;;6.70;99.90;;;;;;4945575;29;20044;-82
2023/12/15 04:45:57;;;;;;;44.20;16.20;;;5.80;99.90;;;;;;4937016;29;20044;-83
2023/12/15 04:48:24;;;;;;;46.65;16.40;;;5.80;99.90;;;;;;4952385;29;20035;-82
2023/12/15 04:50:52;;;;;;;47.92;16.05;;;5.90;99.90;;;;;;4942744;29;20065;-82
2023/12/15 04:53:18;;;;;;;48.00;16.77;;;5.80;99.90;;;;;;4953582;29;20039;-83
2023/12/15 04:55:45;;;;;;;49.72;17.08;;;6.10;99.90;;;;;;4953561;29;20051;-83
2023/12/15 04:58:12;;;;;;;53.25;16.52;;;5.90;99.90;;;;;;4953828;29;20039;-83
2023/12/15 05:00:38;;;;;;;48.95;17.75;;;5.90;99.90;;;;;;4953779;29;20122;-83
2023/12/15 05:03:05;;;;;;;47.10;16.52;;;6.00;99.90;;;;;;4953308;29;20381;-83
2023/12/15 05:05:31;;;;;;;52.13;16.33;;;6.50;99.90;;;;;;4969093;29;20060;-83
2023/12/15 05:07:58;;;;;;;53.13;17.33;;;7.10;99.90;;;;;;4953581;29;20548;-83
2023/12/15 05:10:25;;;;;;;60.08;16.38;;;7.00;99.90;;;;;;4953266;29;20066;-83
2023/12/15 05:12:51;;;;;;;49.72;17.15;;;6.80;99.90;;;;;;4953372;29;20040;-83
2023/12/15 05:15:18;;;;;;;58.00;17.83;;;6.90;99.90;;;;;;4952107;29;20043;-82
2023/12/15 05:17:45;;;;;;;50.60;15.82;;;6.10;99.90;;;;;;4957825;29;20106;-83
2023/12/15 05:20:12;;;;;;;51.25;15.57;;;6.10;99.90;;;;;;4953413;29;20477;-83
2023/12/15 05:22:38;;;;;;;57.83;16.08;;;6.10;99.90;;;;;;4953220;29;20043;-83
2023/12/15 05:25:05;;;;;;;51.67;16.42;;;6.60;99.90;;;;;;4953156;29;20051;-83
2023/12/15 05:27:32;;;;;;;47.00;16.10;;;6.20;99.90;;;;;;4953162;29;20123;-82
2023/12/15 05:29:58;;;;;;;50.03;16.80;;;6.80;99.90;;;;;;4953037;29;20075;-83
2023/12/15 05:32:25;;;;;;;55.70;15.65;;;7.00;99.90;;;;;;4953399;29;20126;-83
2023/12/15 05:34:52;;;;;;;49.38;16.52;;;6.90;99.90;;;;;;4953074;29;20085;-83
2023/12/15 05:37:18;;;;;;;49.92;15.73;;;6.80;99.90;;;;;;4942967;29;20044;-83
2023/12/15 05:39:45;;;;;;;52.92;15.68;;;6.10;99.90;;;;;;4953418;29;20082;-83
2023/12/15 05:42:12;;;;;;;45.97;14.63;;;6.10;99.90;;;;;;4953040;29;20062;-83
2023/12/15 05:44:40;;;;;;;41.50;16.25;;;6.00;99.90;;;;;;4952864;29;20047;-83
2023/12/15 05:47:07;;;;;;;47.15;15.40;;;6.70;99.90;;;;;;4968676;29;20047;-83
2023/12/15 05:49:38;;;;;;;50.35;15.20;;;6.00;99.90;;;;;;4952693;29;20055;-83
2023/12/15 05:52:05;;;;;;;38.38;13.93;;;6.90;99.90;;;;;;4937314;29;20498;-82
2023/12/15 05:54:32;;;;;;;47.80;14.40;;;6.00;99.90;;;;;;4952857;29;20036;-83
2023/12/15 05:56:58;;;;;;;46.65;14.20;;;6.60;99.90;;;;;;4952715;29;20178;-83
2023/12/15 05:59:25;;;;;;;40.17;14.65;;;6.80;99.90;;;;;;4952802;29;20043;-83
2023/12/15 06:01:52;;;;;;;54.38;15.18;;;7.00;99.90;;;;;;4940411;29;20044;-83
2023/12/15 06:04:19;;;;;;;45.30;13.57;;;6.60;99.90;;;;;;4940087;29;20082;-82
2023/12/15 06:06:47;;;;;;;40.15;13.45;;;6.30;99.90;;;;;;4952692;29;20393;-83
2023/12/15 06:09:13;;;;;;;37.17;13.32;;;6.40;99.90;;;;;;4952592;29;20043;-83
2023/12/15 06:11:41;;;;;;;39.30;12.55;;;5.90;99.90;;;;;;4952666;29;20058;-83
2023/12/15 06:14:09;;;;;;;36.40;13.18;;;6.40;99.90;;;;;;4952540;29;20043;-83
2023/12/15 06:16:36;;;;;;;41.80;14.05;;;6.70;99.90;;;;;;4941303;29;20043;-83
2023/12/15 06:19:02;;;;;;;45.08;14.52;;;6.10;99.90;;;;;;4939694;29;20118;-83
2023/12/15 06:21:29;;;;;;;44.30;13.93;;;5.80;99.90;;;;;;4940437;29;20044;-83
2023/12/15 06:23:56;;;;;;;42.33;13.40;;;5.80;99.90;;;;;;4946075;29;20047;-83
2023/12/15 06:26:25;;;;;;;38.38;13.68;;;5.80;99.90;;;;;;4933687;29;20633;-83
2023/12/15 06:28:53;;;;;;;50.17;13.38;;;6.60;99.90;;;;;;4952640;29;20507;-83
2023/12/15 06:31:20;;;;;;;38.38;13.38;;;5.80;99.90;;;;;;4952415;29;20517;-83
2023/12/15 06:33:47;;;;;;;34.08;12.93;;;5.70;99.90;;;;;;4944749;29;20040;-83
2023/12/15 06:36:14;;;;;;;40.88;13.73;;;5.70;99.90;;;;;;4933555;29;20489;-83
2023/12/15 06:38:44;;;;;;;40.42;12.48;;;6.60;99.90;;;;;;4941883;29;20508;-83
2023/12/15 06:41:12;;;;;;;52.90;13.48;;;6.00;99.90;;;;;;4940133;29;20055;-83
2023/12/15 06:43:39;;;;;;;49.88;14.50;;;5.70;99.90;;;;;;4955901;29;20464;-83
2023/12/15 06:46:07;;;;;;;48.30;13.77;;;5.60;99.90;;;;;;4972305;29;20043;-83
2023/12/15 06:48:34;;;;;;;47.30;13.40;;;6.70;99.90;;;;;;4965138;29;20428;-83
2023/12/15 06:51:01;;;;;;;42.40;13.48;;;5.60;99.90;;;;;;4955574;29;20044;-83
2023/12/15 06:53:28;;;;;;;42.20;12.15;;;5.60;99.90;;;;;;4955868;29;20070;-83
2023/12/15 06:55:54;;;;;;;41.17;13.45;;;5.60;99.90;;;;;;4954052;29;20047;-83
2023/12/15 06:58:21;;;;;;;44.35;13.38;;;5.60;99.90;;;;;;4940332;29;20040;-82
2023/12/15 07:00:47;;;;;;;49.22;13.65;;;5.70;99.90;;;;;;4955770;29;20106;-83
2023/12/15 07:03:14;;;;;;;52.42;13.35;;;5.70;99.90;;;;;;4955393;29;20032;-83
2023/12/15 07:05:41;;;;;;;48.83;12.30;;;6.60;99.90;;;;;;4953555;29;20062;-83
2023/12/15 07:08:08;;;;;;;51.95;12.65;;;5.70;99.90;;;;;;4945134;29;20040;-83
2023/12/15 07:10:34;;;;;;;40.40;13.73;;;5.70;99.90;;;;;;4945686;29;20043;-83
2023/12/15 07:13:01;;;;;;;48.92;12.55;;;5.80;99.90;;;;;;4941503;29;20070;-83
2023/12/15 07:15:29;;;;;;;46.65;13.07;;;5.80;99.90;;;;;;4946350;29;20067;-83
2023/12/15 07:17:56;;;;;;;49.83;12.60;;;6.70;99.90;;;;;;4947946;29;20505;-83
2023/12/15 07:20:26;;;;;;;38.08;12.05;;;6.10;99.90;;;;;;4946868;29;20051;-83
2023/12/15 07:22:52;;;;;;;41.38;12.98;;;5.80;99.90;;;;;;4943767;29;20470;-83
2023/12/15 07:25:19;;;;;;;33.42;11.90;;;5.90;99.90;;;;;;4943803;29;20044;-83
2023/12/15 07:27:46;;;;;;;43.33;12.88;;;5.90;99.90;;;;;;4944373;29;20044;-83
2023/12/15 07:30:13;;;;;;;38.95;13.00;;;5.90;99.90;;;;;;4941263;29;20095;-82
2023/12/15 07:32:39;;;;;;;38.63;12.80;;;5.90;99.90;;;;;;4963712;29;20102;-83
2023/12/15 07:35:06;;;;;;;50.83;12.25;;;5.90;99.90;;;;;;4954708;29;20040;-83
2023/12/15 07:37:36;;;;;;;42.05;11.65;;;6.00;99.90;;;;;;4951263;29;20031;-83
2023/12/15 07:40:03;;;;;;;40.00;11.52;;;6.00;99.90;;;;;;4954801;29;20098;-83
2023/12/15 07:42:30;;;;;;;45.58;12.77;;;6.00;99.90;;;;;;4951898;29;20055;-83
2023/12/15 07:44:57;;;;;;;53.28;12.52;;;6.80;99.90;;;;;;4935729;29;20048;-83
2023/12/15 07:47:24;;;;;;;43.95;12.50;;;6.10;99.90;;;;;;4950682;29;20039;-83
2023/12/15 07:49:51;;;;;;;46.00;11.98;;;6.00;99.90;;;;;;4948539;29;20135;-82
2023/12/15 07:52:17;;;;;;;34.00;11.38;;;7.00;99.90;;;;;;4947427;29;20136;-83
2023/12/15 07:54:44;;;;;;;46.28;12.07;;;6.70;99.90;;;;;;4943173;29;20135;-82
2023/12/15 07:57:12;;;;;;;29.58;11.15;;;5.70;99.90;;;;;;4941872;29;20134;-82
2023/12/15 07:59:39;;;;;;;38.03;11.50;;;6.50;99.90;;;;;;4945038;29;20032;-83
2023/12/15 08:02:06;;;;;;;41.88;11.18;;;6.10;99.90;;;;;;4950703;29;20036;-82
2023/12/15 08:04:32;;;;;;;46.47;12.25;;;7.10;99.90;;;;;;4945544;29;20469;-82
2023/12/15 08:06:59;;;;;;;39.90;11.32;;;7.10;99.90;;;;;;4948244;29;20044;-82
2023/12/15 08:09:26;;;;;;;36.10;11.35;;;7.10;99.90;;;;;;4953798;29;20078;-82
2023/12/15 08:11:52;;;;;;;37.92;11.13;;;6.10;99.90;;;;;;4970199;29;20039;-82
2023/12/15 08:14:19;;;;;;;34.00;11.50;;;6.20;99.90;;;;;;4954161;29;20040;-82
2023/12/15 08:16:46;;;;;;;50.70;11.93;;;6.70;99.90;;;;;;4967404;29;20039;-82
2023/12/15 08:19:12;;;;;;;39.88;11.18;;;6.10;99.90;;;;;;4953360;29;20039;-83
2023/12/15 08:21:40;;;;;;;42.05;10.90;;;6.20;99.90;;;;;;4940505;29;20052;-83
2023/12/15 08:24:07;;;;;;;40.33;11.38;;;7.20;99.90;;;;;;4943076;29;20075;-83
2023/12/15 08:26:34;;;;;;;43.65;10.50;;;7.20;99.90;;;;;;4958563;29;20071;-82
2023/12/15 08:29:00;;;;;;;35.78;10.90;;;6.20;99.90;;;;;;4951572;29;20058;-82
2023/12/15 08:31:27;;;;;;;44.10;11.35;;;6.20;99.90;;;;;;4941201;29;20040;-82
2023/12/15 08:33:54;;;;;;;40.38;10.02;;;6.30;99.90;;;;;;4947822;29;20039;-82
2023/12/15 08:36:21;;;;;;;51.90;11.35;;;6.40;99.90;;;;;;4948804;29;20044;-83
2023/12/15 08:38:47;;;;;;;49.13;11.02;;;7.20;99.90;;;;;;4966866;29;20043;-82
2023/12/15 08:41:14;;;;;;;40.40;10.50;;;7.40;99.90;;;;;;4944826;29;20040;-82
2023/12/15 08:43:41;;;;;;;31.73;9.32;;;6.40;99.90;;;;;;4969085;29;20173;-82
2023/12/15 08:46:08;;;;;;;35.55;10.20;;;6.40;99.90;;;;;;4965118;29;20071;-82
2023/12/15 08:48:35;;;;;;;36.08;9.70;;;6.90;99.90;;;;;;4955399;29;20083;-82
2023/12/15 08:51:01;;;;;;;47.17;9.77;;;6.30;99.90;;;;;;4953239;29;20039;-82
2023/12/15 08:53:28;;;;;;;46.13;10.68;;;6.40;99.90;;;;;;4938194;29;20040;-82
2023/12/15 08:55:54;;;;;;;36.10;11.25;;;6.40;99.90;;;;;;4952639;29;20040;-82
2023/12/15 08:58:23;;;;;;;37.58;10.90;;;6.50;99.90;;;;;;4943371;29;20036;-82
2023/12/15 09:00:50;;;;;;;33.25;9.40;;;6.30;99.90;;;;;;4938485;29;20497;-82
2023/12/15 09:03:17;;;;;;;37.47;9.80;;;6.60;99.90;;;;;;4952286;29;20122;-82
2023/12/15 09:05:43;;;;;;;33.10;10.93;;;6.30;99.90;;;;;;4940233;29;20056;-81
2023/12/15 09:08:10;;;;;;;37.70;9.45;;;6.40;99.90;;;;;;4968956;29;20501;-82
2023/12/15 09:10:42;;;;;;;38.17;9.52;;;6.40;99.90;;;;;;4945294;29;20044;-82
2023/12/15 09:13:09;;;;;;;35.30;9.35;;;6.40;99.90;;;;;;4959852;29;20095;-82
2023/12/15 09:15:36;;;;;;;30.42;9.63;;;6.40;99.90;;;;;;4952715;29;20445;-82
2023/12/15 09:18:02;;;;;;;39.03;9.30;;;6.40;99.90;;;;;;4953214;29;20040;-82
2023/12/15 09:20:29;;;;;;;26.65;8.95;;;6.50;99.90;;;;;;4968800;29;20493;-82
2023/12/15 09:22:56;;;;;;;31.15;8.43;;;6.40;99.90;;;;;;4952743;29;20067;-82
2023/12/15 09:25:22;;;;;;;31.48;8.35;;;6.50;99.90;;;;;;4952750;29;20039;-82
2023/12/15 09:27:49;;;;;;;37.15;9.93;;;7.10;99.90;;;;;;4951196;29;20043;-82
2023/12/15 09:30:16;;;;;;;39.47;8.77;;;6.60;99.90;;;;;;4936281;29;20054;-82
2023/12/15 09:32:42;;;;;;;38.03;7.88;;;6.60;99.90;;;;;;4963760;29;20445;-82
2023/12/15 09:35:10;;;;;;;27.17;7.78;;;6.60;99.90;;;;;;4942075;29;20084;-81
2023/12/15 09:37:37;;;;;;;34.47;8.02;;;6.60;99.90;;;;;;4947673;29;20461;-82
2023/12/15 09:40:04;;;;;;;32.58;7.20;;;6.60;99.90;;;;;;4938416;29;20078;-82
2023/12/15 09:42:31;;;;;;;26.60;7.43;;;6.70;99.90;;;;;;4947432;29;20063;-81
2023/12/15 09:44:57;;;;;;;34.30;7.80;;;7.10;99.90;;;;;;4976085;29;20500;-81
2023/12/15 09:47:26;;;;;;;26.48;7.18;;;6.70;99.90;;;;;;4947248;29;20044;-81
2023/12/15 09:49:54;;;;;;;27.65;6.78;;;6.80;99.90;;;;;;4961886;29;20048;-82
2023/12/15 09:52:22;;;;;;;32.92;7.45;;;6.80;99.90;;;;;;4937043;29;20052;-82
2023/12/15 09:54:49;;;;;;;33.45;7.18;;;6.80;99.90;;;;;;4945761;29;20512;-82
2023/12/15 09:57:17;;;;;;;23.48;6.70;;;6.80;99.90;;;;;;4942295;29;20404;-81
2023/12/15 09:59:43;;;;;;;29.20;7.28;;;7.30;99.90;;;;;;4948229;29;20055;-81
2023/12/15 10:02:10;;;;;;;26.38;6.90;;;7.10;99.90;;;;;;4942890;29;20899;-81
2023/12/15 10:04:37;;;;;;;31.80;7.05;;;7.00;99.90;;;;;;4946834;29;20059;-82
2023/12/15 10:07:06;;;;;;;24.08;6.47;;;7.60;99.90;;;;;;4951874;29;20496;-82
2023/12/15 10:09:38;;;;;;;32.88;7.72;;;6.90;99.90;;;;;;4949061;29;20048;-81
2023/12/15 10:12:11;;;;;;;38.65;6.53;;;6.90;99.90;;;;;;4948120;29;20047;-82
2023/12/15 10:14:38;;;;;;;28.95;6.50;;;7.10;99.90;;;;;;4952057;29;20075;-82
2023/12/15 10:17:12;;;;;;;27.70;6.82;;;7.50;99.90;;;;;;4951058;29;20055;-82
2023/12/15 10:19:38;;;;;;;28.13;6.25;;;7.10;99.90;;;;;;4955854;29;20515;-81
2023/12/15 10:22:06;;;;;;;25.52;5.75;;;7.40;99.90;;;;;;4952853;29;20036;-82
2023/12/15 10:24:34;;;;;;;29.17;6.05;;;7.20;99.90;;;;;;4947598;29;20035;-82
2023/12/15 10:27:03;;;;;;;25.83;5.97;;;7.20;99.90;;;;;;4955872;29;20423;-82
2023/12/15 10:29:30;;;;;;;31.55;6.88;;;7.20;99.90;;;;;;4944344;29;20096;-81
2023/12/15 10:31:57;;;;;;;31.88;7.03;;;7.20;99.90;;;;;;4967673;29;20035;-82
2023/12/15 10:34:26;;;;;;;34.95;6.63;;;7.90;99.90;;;;;;4971583;29;20573;-82
2023/12/15 10:36:53;;;;;;;31.88;6.03;;;8.10;99.90;;;;;;4954719;29;20050;-81
2023/12/15 10:39:21;;;;;;;27.95;6.30;;;7.80;99.90;;;;;;4939808;29;20052;-81
2023/12/15 10:41:51;;;;;;;21.58;5.60;;;7.90;99.90;;;;;;4948520;29;20067;-81
2023/12/15 10:44:21;;;;;;;26.20;6.50;;;7.30;99.90;;;;;;4949483;29;20052;-82
2023/12/15 10:46:48;;;;;;;22.00;5.55;;;7.30;99.90;;;;;;4955604;29;20048;-82
2023/12/15 10:49:18;;;;;;;24.02;6.63;;;7.40;99.90;;;;;;4955608;29;20047;-81
2023/12/15 10:51:47;;;;;;;28.65;5.95;;;7.40;99.90;;;;;;4950009;29;20094;-83
2023/12/15 10:54:16;;;;;;;31.48;5.45;;;7.50;99.90;;;;;;4949478;29;20091;-82
2023/12/15 10:56:45;;;;;;;33.40;5.93;;;7.40;99.90;;;;;;4965076;29;20046;-82
2023/12/15 10:59:11;;;;;;;32.60;6.15;;;7.50;99.90;;;;;;4960427;29;20480;-82
2023/12/15 11:01:40;;;;;;;23.80;5.30;;;8.30;99.90;;;;;;4945698;29;20040;-81
2023/12/15 11:04:19;;;;;;;24.25;5.18;;;7.50;99.90;;;;;;4939316;29;20130;-82
2023/12/15 11:06:48;;;;;;;31.38;5.97;;;7.50;99.90;;;;;;4945240;29;20047;-81
2023/12/15 11:09:36;;;;;;;28.63;6.20;;;8.10;99.90;;;;;;4947197;29;20090;-82
2023/12/15 11:12:22;;;;;;;20.52;5.65;;;7.50;99.90;;;;;;4931776;29;20035;-82
2023/12/15 11:15:04;;;;;;;21.77;5.00;;;7.60;99.90;;;;;;4953714;29;20082;-82
2023/12/15 11:17:40;;;;;;;34.03;6.10;;;7.60;99.90;;;;;;4945748;29;20070;-82
2023/12/15 11:20:31;;;;;;;26.25;5.15;;;8.30;99.90;;;;;;4943303;29;20409;-82
2023/12/15 11:23:07;;;;;;;31.05;5.45;;;8.20;99.90;;;;;;4946048;29;20043;-82
2023/12/15 11:25:51;;;;;;;25.40;4.20;;;7.70;99.90;;;;;;4946670;29;20062;-82
2023/12/15 11:28:20;;;;;;;26.17;5.82;;;7.70;99.90;;;;;;4942660;29;20465;-82
2023/12/15 11:30:51;;;;;;;22.58;5.10;;;7.70;99.90;;;;;;4951152;29;20039;-81
2023/12/15 11:33:23;;;;;;;26.38;5.15;;;7.80;99.90;;;;;;4949098;29;20036;-82
2023/12/15 11:35:54;;;;;;;27.65;5.32;;;7.80;99.90;;;;;;4945365;29;20508;-81
2023/12/15 11:38:21;;;;;;;30.27;6.03;;;7.80;99.90;;;;;;4943920;29;21663;-82
2023/12/15 11:40:48;;;;;;;28.35;5.07;;;7.80;99.90;;;;;;4946991;29;20044;-81
2023/12/15 11:43:15;;;;;;;26.58;5.93;;;7.80;99.90;;;;;;4949673;29;20484;-82
2023/12/15 11:45:41;;;;;;;31.05;4.80;;;7.80;99.90;;;;;;4950302;29;20127;-81
2023/12/15 11:48:14;;;;;;;25.33;5.22;;;7.80;99.90;;;;;;4942163;29;20044;-82
2023/12/15 11:50:42;;;;;;;26.10;4.72;;;7.80;99.90;;;;;;4951471;29;20054;-81
2023/12/15 11:53:10;;;;;;;20.77;5.32;;;7.80;99.90;;;;;;4949857;29;20524;-81
2023/12/15 11:55:38;;;;;;;21.08;4.57;;;7.80;99.90;;;;;;4949148;29;20500;-81
2023/12/15 11:58:06;;;;;;;24.55;4.28;;;8.20;99.90;;;;;;4947043;29;20095;-80
2023/12/15 12:00:33;;;;;;;25.17;4.40;;;7.80;99.90;;;;;;4940405;29;20454;-81
2023/12/15 12:03:00;;;;;;;26.00;4.47;;;7.80;99.90;;;;;;4962890;29;20040;-81
2023/12/15 12:05:27;;;;;;;22.05;4.47;;;7.90;99.90;;;;;;4950732;29;20063;-81
2023/12/15 12:07:54;;;;;;;26.70;4.45;;;8.80;99.90;;;;;;4954157;29;20047;-82
2023/12/15 12:10:21;;;;;;;22.92;4.25;;;7.90;99.90;;;;;;4969967;29;20055;-81
2023/12/15 12:12:48;;;;;;;22.40;4.45;;;7.90;99.90;;;;;;4943741;29;20068;-81
2023/12/15 12:15:15;;;;;;;24.27;5.25;;;8.60;99.90;;;;;;4952139;29;20044;-81
2023/12/15 12:17:41;;;;;;;33.55;6.05;;;7.90;99.90;;;;;;4935204;29;20499;-81
2023/12/15 12:20:11;;;;;;;21.30;4.60;;;7.90;99.90;;;;;;4947245;29;20028;-81
2023/12/15 12:22:39;;;;;;;23.05;4.93;;;8.00;99.90;;;;;;4967101;29;20068;-81
2023/12/15 12:25:06;;;;;;;35.17;6.65;;;8.00;99.90;;;;;;4964739;29;20044;-81
2023/12/15 12:27:34;;;;;;;29.98;5.15;;;8.00;99.90;;;;;;4942842;29;20076;-81
2023/12/15 12:30:02;;;;;;;26.63;5.07;;;8.00;99.90;;;;;;4939643;29;20086;-81
2023/12/15 12:32:29;;;;;;;34.92;4.90;;;8.00;99.90;;;;;;4941808;29;20040;-81
2023/12/15 12:34:57;;;;;;;25.15;4.90;;;8.00;99.90;;;;;;4963887;29;20497;-81
2023/12/15 12:37:24;;;;;;;33.05;5.25;;;8.10;99.90;;;;;;4942806;29;20039;-81
2023/12/15 12:39:50;;;;;;;34.35;5.57;;;8.20;99.90;;;;;;4943695;29;20127;-81
2023/12/15 12:42:17;;;;;;;28.67;5.35;;;8.20;99.90;;;;;;4948703;29;20040;-81